sensor_id;sensor_type;location;lat;lon;timestamp;temperature;humidity
12811;DHT22;6470;47.654;7.896;2024-03-07T00:02:10;1.90;99.90
12811;DHT22;6470;47.654;7.896;2024-03-07T00:04:35;5.50;99.90
12811;DHT22;6470;47.654;7.896;2024-03-07T00:07:04;5.30;99.90
12811;DHT22;6470;47.654;7.896;2024-03-07T00:09:35;4.80;99.90
12811;DHT22;6470;47.654;7.896;2024-03-07T00:16:54;4.80;99.90
12811;DHT22;6470;47.654;7.896;2024-03-07T00:24:13;5.10;99.90
12811;DHT22;6470;47.654;7.896;2024-03-07T00:26:42;5.10;99.90
12811;DHT22;6470;47.654;7.896;2024-03-07T00:34:00;5.30;99.90
12811;DHT22;6470;47.654;7.896;2024-03-07T00:36:25;5.20;99.90
12811;DHT22;6470;47.654;7.896;2024-03-07T00:38:52;4.80;99.90
12811;DHT22;6470;47.654;7.896;2024-03-07T00:41:19;5.10;99.90
12811;DHT22;6470;47.654;7.896;2024-03-07T00:43:44;4.90;99.90
12811;DHT22;6470;47.654;7.896;2024-03-07T00:46:10;5.20;99.90
12811;DHT22;6470;47.654;7.896;2024-03-07T00:48:37;2.50;99.90
12811;DHT22;6470;47.654;7.896;2024-03-07T00:51:03;4.80;99.90
12811;DHT22;6470;47.654;7.896;2024-03-07T00:53:30;4.60;99.90
12811;DHT22;6470;47.654;7.896;2024-03-07T00:55:56;5.30;99.90
12811;DHT22;6470;47.654;7.896;2024-03-07T00:58:22;4.40;99.90
12811;DHT22;6470;47.654;7.896;2024-03-07T01:03:13;1.70;99.90
12811;DHT22;6470;47.654;7.896;2024-03-07T01:05:42;5.00;99.90
12811;DHT22;6470;47.654;7.896;2024-03-07T01:08:08;5.20;99.90
12811;DHT22;6470;47.654;7.896;2024-03-07T01:15:32;5.40;99.90
12811;DHT22;6470;47.654;7.896;2024-03-07T01:17:58;2.50;99.90
12811;DHT22;6470;47.654;7.896;2024-03-07T01:20:23;5.00;99.90
12811;DHT22;6470;47.654;7.896;2024-03-07T01:22:53;4.90;99.90
12811;DHT22;6470;47.654;7.896;2024-03-07T01:30:13;4.30;99.90
12811;DHT22;6470;47.654;7.896;2024-03-07T01:32:38;1.90;99.90
12811;DHT22;6470;47.654;7.896;2024-03-07T01:35:05;1.80;99.90
12811;DHT22;6470;47.654;7.896;2024-03-07T01:39:58;5.20;99.90
12811;DHT22;6470;47.654;7.896;2024-03-07T01:44:50;4.80;99.90
12811;DHT22;6470;47.654;7.896;2024-03-07T01:47:17;5.10;99.90
12811;DHT22;6470;47.654;7.896;2024-03-07T01:52:09;5.20;99.90
12811;DHT22;6470;47.654;7.896;2024-03-07T01:54:36;5.10;99.90
12811;DHT22;6470;47.654;7.896;2024-03-07T01:57:02;4.60;99.90
12811;DHT22;6470;47.654;7.896;2024-03-07T01:59:29;5.00;99.90
12811;DHT22;6470;47.654;7.896;2024-03-07T02:01:56;1.80;99.90
12811;DHT22;6470;47.654;7.896;2024-03-07T02:14:09;5.40;99.90
12811;DHT22;6470;47.654;7.896;2024-03-07T02:19:00;5.30;99.90
12811;DHT22;6470;47.654;7.896;2024-03-07T02:21:27;4.70;99.90
12811;DHT22;6470;47.654;7.896;2024-03-07T02:26:19;5.00;99.90
12811;DHT22;6470;47.654;7.896;2024-03-07T02:28:45;5.10;99.90
12811;DHT22;6470;47.654;7.896;2024-03-07T02:31:11;4.80;99.90
12811;DHT22;6470;47.654;7.896;2024-03-07T02:38:29;5.00;99.90
12811;DHT22;6470;47.654;7.896;2024-03-07T02:40:55;4.60;99.90
12811;DHT22;6470;47.654;7.896;2024-03-07T02:50:43;5.10;99.90
12811;DHT22;6470;47.654;7.896;2024-03-07T02:55:35;4.90;99.90
12811;DHT22;6470;47.654;7.896;2024-03-07T02:58:01;4.50;99.90
12811;DHT22;6470;47.654;7.896;2024-03-07T03:00:27;5.50;99.90
12811;DHT22;6470;47.654;7.896;2024-03-07T03:02:53;5.50;99.90
12811;DHT22;6470;47.654;7.896;2024-03-07T03:05:19;5.60;99.90
12811;DHT22;6470;47.654;7.896;2024-03-07T03:07:45;1.80;99.90
12811;DHT22;6470;47.654;7.896;2024-03-07T03:10:22;4.80;99.90
12811;DHT22;6470;47.654;7.896;2024-03-07T03:12:58;5.20;99.90
12811;DHT22;6470;47.654;7.896;2024-03-07T03:17:51;5.30;99.90
12811;DHT22;6470;47.654;7.896;2024-03-07T03:20:17;5.30;99.90
12811;DHT22;6470;47.654;7.896;2024-03-07T03:23:05;5.20;99.90
12811;DHT22;6470;47.654;7.896;2024-03-07T03:25:31;5.10;99.90
12811;DHT22;6470;47.654;7.896;2024-03-07T03:28:05;5.10;99.90
12811;DHT22;6470;47.654;7.896;2024-03-07T03:30:32;4.70;99.90
12811;DHT22;6470;47.654;7.896;2024-03-07T03:33:01;4.50;99.90
12811;DHT22;6470;47.654;7.896;2024-03-07T03:35:27;2.20;99.90
12811;DHT22;6470;47.654;7.896;2024-03-07T03:37:52;4.30;99.90
12811;DHT22;6470;47.654;7.896;2024-03-07T03:40:18;4.60;99.90
12811;DHT22;6470;47.654;7.896;2024-03-07T03:42:44;5.30;99.90
12811;DHT22;6470;47.654;7.896;2024-03-07T03:45:10;4.50;99.90
12811;DHT22;6470;47.654;7.896;2024-03-07T03:47:41;4.60;99.90
12811;DHT22;6470;47.654;7.896;2024-03-07T03:50:10;4.80;99.90
12811;DHT22;6470;47.654;7.896;2024-03-07T03:55:03;1.30;99.90
12811;DHT22;6470;47.654;7.896;2024-03-07T03:57:33;5.50;99.90
12811;DHT22;6470;47.654;7.896;2024-03-07T04:02:26;5.00;99.90
12811;DHT22;6470;47.654;7.896;2024-03-07T04:04:52;4.90;99.90
12811;DHT22;6470;47.654;7.896;2024-03-07T04:07:18;4.90;99.90
12811;DHT22;6470;47.654;7.896;2024-03-07T04:09:45;4.90;99.90
12811;DHT22;6470;47.654;7.896;2024-03-07T04:12:12;4.80;99.90
12811;DHT22;6470;47.654;7.896;2024-03-07T04:14:39;5.40;99.90
12811;DHT22;6470;47.654;7.896;2024-03-07T04:19:36;5.00;99.90
12811;DHT22;6470;47.654;7.896;2024-03-07T04:22:04;5.10;99.90
12811;DHT22;6470;47.654;7.896;2024-03-07T04:24:33;5.40;99.90
12811;DHT22;6470;47.654;7.896;2024-03-07T04:26:59;5.20;99.90
12811;DHT22;6470;47.654;7.896;2024-03-07T04:31:52;5.40;99.90
12811;DHT22;6470;47.654;7.896;2024-03-07T04:34:18;5.20;99.90
12811;DHT22;6470;47.654;7.896;2024-03-07T04:36:44;5.00;99.90
12811;DHT22;6470;47.654;7.896;2024-03-07T04:39:10;5.50;99.90
12811;DHT22;6470;47.654;7.896;2024-03-07T04:42:02;5.50;99.90
12811;DHT22;6470;47.654;7.896;2024-03-07T04:44:32;1.70;99.90
12811;DHT22;6470;47.654;7.896;2024-03-07T04:46:59;4.90;99.90
12811;DHT22;6470;47.654;7.896;2024-03-07T04:49:27;5.20;99.90
12811;DHT22;6470;47.654;7.896;2024-03-07T04:51:55;5.20;99.90
12811;DHT22;6470;47.654;7.896;2024-03-07T04:54:22;5.30;99.90
12811;DHT22;6470;47.654;7.896;2024-03-07T04:56:49;5.40;99.90
12811;DHT22;6470;47.654;7.896;2024-03-07T04:59:15;2.40;99.90
12811;DHT22;6470;47.654;7.896;2024-03-07T05:01:45;4.20;99.90
12811;DHT22;6470;47.654;7.896;2024-03-07T05:04:15;4.80;99.90
12811;DHT22;6470;47.654;7.896;2024-03-07T05:06:42;2.00;99.90
12811;DHT22;6470;47.654;7.896;2024-03-07T05:09:09;5.50;99.90
12811;DHT22;6470;47.654;7.896;2024-03-07T05:11:36;5.50;99.90
12811;DHT22;6470;47.654;7.896;2024-03-07T05:14:02;4.90;99.90
12811;DHT22;6470;47.654;7.896;2024-03-07T05:16:29;4.70;99.90
12811;DHT22;6470;47.654;7.896;2024-03-07T05:18:55;4.70;99.90
12811;DHT22;6470;47.654;7.896;2024-03-07T05:21:25;5.60;99.90
12811;DHT22;6470;47.654;7.896;2024-03-07T05:24:05;5.40;99.90
12811;DHT22;6470;47.654;7.896;2024-03-07T05:26:37;4.70;99.90
12811;DHT22;6470;47.654;7.896;2024-03-07T05:29:07;5.50;99.90
12811;DHT22;6470;47.654;7.896;2024-03-07T05:31:39;4.90;99.90
12811;DHT22;6470;47.654;7.896;2024-03-07T05:34:17;5.10;99.90
12811;DHT22;6470;47.654;7.896;2024-03-07T05:36:46;5.10;99.90
12811;DHT22;6470;47.654;7.896;2024-03-07T05:39:16;2.00;99.90
12811;DHT22;6470;47.654;7.896;2024-03-07T05:41:44;5.30;99.90
12811;DHT22;6470;47.654;7.896;2024-03-07T05:44:14;5.00;99.90
12811;DHT22;6470;47.654;7.896;2024-03-07T05:46:41;4.70;99.90
12811;DHT22;6470;47.654;7.896;2024-03-07T05:49:11;1.60;99.90
12811;DHT22;6470;47.654;7.896;2024-03-07T05:51:37;5.30;99.90
12811;DHT22;6470;47.654;7.896;2024-03-07T05:54:03;1.80;99.90
12811;DHT22;6470;47.654;7.896;2024-03-07T05:56:35;4.70;99.90
12811;DHT22;6470;47.654;7.896;2024-03-07T05:59:02;5.40;99.90
12811;DHT22;6470;47.654;7.896;2024-03-07T06:01:30;4.60;99.90
12811;DHT22;6470;47.654;7.896;2024-03-07T06:04:00;4.30;99.90
12811;DHT22;6470;47.654;7.896;2024-03-07T06:06:26;4.40;99.90
12811;DHT22;6470;47.654;7.896;2024-03-07T06:11:18;1.70;99.90
12811;DHT22;6470;47.654;7.896;2024-03-07T06:13:47;1.80;99.90
12811;DHT22;6470;47.654;7.896;2024-03-07T06:16:13;4.60;99.90
12811;DHT22;6470;47.654;7.896;2024-03-07T06:18:40;5.10;99.90
12811;DHT22;6470;47.654;7.896;2024-03-07T06:23:34;4.50;99.90
12811;DHT22;6470;47.654;7.896;2024-03-07T06:26:00;4.90;99.90
12811;DHT22;6470;47.654;7.896;2024-03-07T06:28:26;4.90;99.90
12811;DHT22;6470;47.654;7.896;2024-03-07T06:30:54;4.20;99.90
12811;DHT22;6470;47.654;7.896;2024-03-07T06:33:21;4.40;99.90
12811;DHT22;6470;47.654;7.896;2024-03-07T06:35:47;1.80;99.90
12811;DHT22;6470;47.654;7.896;2024-03-07T06:38:13;5.40;99.90
12811;DHT22;6470;47.654;7.896;2024-03-07T06:40:40;4.70;99.90
12811;DHT22;6470;47.654;7.896;2024-03-07T06:43:06;5.20;99.90
12811;DHT22;6470;47.654;7.896;2024-03-07T06:45:33;5.50;99.90
12811;DHT22;6470;47.654;7.896;2024-03-07T06:47:59;5.20;99.90
12811;DHT22;6470;47.654;7.896;2024-03-07T06:50:25;5.30;99.90
12811;DHT22;6470;47.654;7.896;2024-03-07T06:55:21;5.20;99.90
12811;DHT22;6470;47.654;7.896;2024-03-07T06:57:47;5.00;99.90
12811;DHT22;6470;47.654;7.896;2024-03-07T07:00:13;5.20;99.90
12811;DHT22;6470;47.654;7.896;2024-03-07T07:02:44;5.70;99.90
12811;DHT22;6470;47.654;7.896;2024-03-07T07:05:10;5.80;99.90
12811;DHT22;6470;47.654;7.896;2024-03-07T07:07:44;5.40;99.90
12811;DHT22;6470;47.654;7.896;2024-03-07T07:10:11;2.90;99.90
12811;DHT22;6470;47.654;7.896;2024-03-07T07:12:42;5.50;99.90
12811;DHT22;6470;47.654;7.896;2024-03-07T07:15:10;5.00;99.90
12811;DHT22;6470;47.654;7.896;2024-03-07T07:17:36;5.50;99.90
12811;DHT22;6470;47.654;7.896;2024-03-07T07:20:02;5.20;99.90
12811;DHT22;6470;47.654;7.896;2024-03-07T07:22:35;5.70;99.90
12811;DHT22;6470;47.654;7.896;2024-03-07T07:25:00;5.10;99.90
12811;DHT22;6470;47.654;7.896;2024-03-07T07:29:52;5.30;99.90
12811;DHT22;6470;47.654;7.896;2024-03-07T07:32:18;5.40;99.90
12811;DHT22;6470;47.654;7.896;2024-03-07T07:34:44;5.40;99.90
12811;DHT22;6470;47.654;7.896;2024-03-07T07:39:39;2.60;99.90
12811;DHT22;6470;47.654;7.896;2024-03-07T07:42:05;5.50;99.90
12811;DHT22;6470;47.654;7.896;2024-03-07T07:44:31;5.30;99.90
12811;DHT22;6470;47.654;7.896;2024-03-07T07:46:57;6.00;99.90
12811;DHT22;6470;47.654;7.896;2024-03-07T07:51:48;3.00;99.90
12811;DHT22;6470;47.654;7.896;2024-03-07T07:54:14;5.50;99.90
12811;DHT22;6470;47.654;7.896;2024-03-07T07:56:40;6.10;99.90
12811;DHT22;6470;47.654;7.896;2024-03-07T07:59:06;5.90;99.90
12811;DHT22;6470;47.654;7.896;2024-03-07T08:01:34;4.40;99.90
12811;DHT22;6470;47.654;7.896;2024-03-07T08:06:27;6.30;99.90
12811;DHT22;6470;47.654;7.896;2024-03-07T08:08:53;6.20;99.90
12811;DHT22;6470;47.654;7.896;2024-03-07T08:11:18;5.60;99.90
12811;DHT22;6470;47.654;7.896;2024-03-07T08:13:44;5.20;99.90
12811;DHT22;6470;47.654;7.896;2024-03-07T08:16:13;6.30;99.90
12811;DHT22;6470;47.654;7.896;2024-03-07T08:18:38;7.00;99.90
12811;DHT22;6470;47.654;7.896;2024-03-07T08:21:04;7.00;99.90
12811;DHT22;6470;47.654;7.896;2024-03-07T08:23:30;6.80;99.90
12811;DHT22;6470;47.654;7.896;2024-03-07T08:25:57;7.00;99.90
12811;DHT22;6470;47.654;7.896;2024-03-07T08:28:23;7.30;99.90
12811;DHT22;6470;47.654;7.896;2024-03-07T08:30:49;7.60;99.90
12811;DHT22;6470;47.654;7.896;2024-03-07T08:33:15;7.70;99.90
12811;DHT22;6470;47.654;7.896;2024-03-07T08:35:41;6.70;99.90
12811;DHT22;6470;47.654;7.896;2024-03-07T08:38:06;7.60;99.90
12811;DHT22;6470;47.654;7.896;2024-03-07T08:40:34;7.10;99.90
12811;DHT22;6470;47.654;7.896;2024-03-07T08:43:00;7.40;99.90
12811;DHT22;6470;47.654;7.896;2024-03-07T08:45:27;7.40;99.90
12811;DHT22;6470;47.654;7.896;2024-03-07T08:47:55;7.20;99.90
12811;DHT22;6470;47.654;7.896;2024-03-07T08:50:22;7.40;99.90
12811;DHT22;6470;47.654;7.896;2024-03-07T08:52:49;6.50;99.90
12811;DHT22;6470;47.654;7.896;2024-03-07T08:55:23;7.70;99.90
12811;DHT22;6470;47.654;7.896;2024-03-07T08:57:50;7.50;99.90
12811;DHT22;6470;47.654;7.896;2024-03-07T09:00:17;7.10;99.90
12811;DHT22;6470;47.654;7.896;2024-03-07T09:05:19;3.90;99.90
12811;DHT22;6470;47.654;7.896;2024-03-07T09:07:46;4.20;99.90
12811;DHT22;6470;47.654;7.896;2024-03-07T09:10:13;7.70;99.90
12811;DHT22;6470;47.654;7.896;2024-03-07T09:12:40;7.90;99.90
12811;DHT22;6470;47.654;7.896;2024-03-07T09:15:06;7.30;99.90
12811;DHT22;6470;47.654;7.896;2024-03-07T09:17:32;7.60;99.90
12811;DHT22;6470;47.654;7.896;2024-03-07T09:19:58;7.50;99.90
12811;DHT22;6470;47.654;7.896;2024-03-07T09:24:50;7.70;99.90
12811;DHT22;6470;47.654;7.896;2024-03-07T09:29:45;8.10;99.90
12811;DHT22;6470;47.654;7.896;2024-03-07T09:32:13;8.30;99.90
12811;DHT22;6470;47.654;7.896;2024-03-07T09:37:05;8.70;99.90
12811;DHT22;6470;47.654;7.896;2024-03-07T09:39:32;6.40;99.90
12811;DHT22;6470;47.654;7.896;2024-03-07T09:42:01;9.20;99.90
12811;DHT22;6470;47.654;7.896;2024-03-07T09:44:28;7.90;99.90
12811;DHT22;6470;47.654;7.896;2024-03-07T09:46:58;8.80;99.90
12811;DHT22;6470;47.654;7.896;2024-03-07T09:49:28;7.50;99.90
12811;DHT22;6470;47.654;7.896;2024-03-07T09:51:55;8.10;99.90
12811;DHT22;6470;47.654;7.896;2024-03-07T09:54:25;8.00;99.90
12811;DHT22;6470;47.654;7.896;2024-03-07T09:56:54;4.50;99.90
12811;DHT22;6470;47.654;7.896;2024-03-07T10:01:55;7.20;99.90
12811;DHT22;6470;47.654;7.896;2024-03-07T10:04:29;8.00;99.90
12811;DHT22;6470;47.654;7.896;2024-03-07T10:06:56;8.00;99.90
12811;DHT22;6470;47.654;7.896;2024-03-07T10:09:22;7.50;99.90
12811;DHT22;6470;47.654;7.896;2024-03-07T10:12:14;5.00;99.90
12811;DHT22;6470;47.654;7.896;2024-03-07T10:14:51;4.50;99.90
12811;DHT22;6470;47.654;7.896;2024-03-07T10:17:19;8.20;99.90
12811;DHT22;6470;47.654;7.896;2024-03-07T10:19:48;8.10;99.90
12811;DHT22;6470;47.654;7.896;2024-03-07T10:22:18;7.10;99.90
12811;DHT22;6470;47.654;7.896;2024-03-07T10:24:55;7.30;99.90
12811;DHT22;6470;47.654;7.896;2024-03-07T10:27:25;7.70;99.90
12811;DHT22;6470;47.654;7.896;2024-03-07T10:29:54;7.70;99.90
12811;DHT22;6470;47.654;7.896;2024-03-07T10:32:22;8.10;99.90
12811;DHT22;6470;47.654;7.896;2024-03-07T10:34:50;7.90;99.90
12811;DHT22;6470;47.654;7.896;2024-03-07T10:37:16;7.40;99.90
12811;DHT22;6470;47.654;7.896;2024-03-07T10:39:45;8.20;99.90
12811;DHT22;6470;47.654;7.896;2024-03-07T10:42:15;8.20;99.90
12811;DHT22;6470;47.654;7.896;2024-03-07T10:44:44;7.50;99.90
12811;DHT22;6470;47.654;7.896;2024-03-07T10:47:17;8.50;99.90
12811;DHT22;6470;47.654;7.896;2024-03-07T10:52:48;8.20;99.90
12811;DHT22;6470;47.654;7.896;2024-03-07T10:57:51;7.80;99.90
12811;DHT22;6470;47.654;7.896;2024-03-07T11:00:26;8.80;99.90
12811;DHT22;6470;47.654;7.896;2024-03-07T11:03:08;6.30;99.90
12811;DHT22;6470;47.654;7.896;2024-03-07T11:08:03;8.90;99.90
12811;DHT22;6470;47.654;7.896;2024-03-07T11:10:38;8.30;99.90
12811;DHT22;6470;47.654;7.896;2024-03-07T11:13:05;8.60;99.90
12811;DHT22;6470;47.654;7.896;2024-03-07T11:15:32;6.90;99.90
12811;DHT22;6470;47.654;7.896;2024-03-07T11:17:58;8.00;99.90
12811;DHT22;6470;47.654;7.896;2024-03-07T11:20:37;8.30;99.90
12811;DHT22;6470;47.654;7.896;2024-03-07T11:23:28;8.60;99.90
12811;DHT22;6470;47.654;7.896;2024-03-07T11:25:55;8.80;99.90
12811;DHT22;6470;47.654;7.896;2024-03-07T11:28:28;8.20;99.90
12811;DHT22;6470;47.654;7.896;2024-03-07T11:30:54;8.80;99.90
12811;DHT22;6470;47.654;7.896;2024-03-07T11:33:20;9.10;99.90
12811;DHT22;6470;47.654;7.896;2024-03-07T11:35:49;8.70;99.90
12811;DHT22;6470;47.654;7.896;2024-03-07T11:38:15;8.70;99.90
12811;DHT22;6470;47.654;7.896;2024-03-07T11:43:11;8.90;99.90
12811;DHT22;6470;47.654;7.896;2024-03-07T11:50:40;8.70;99.90
12811;DHT22;6470;47.654;7.896;2024-03-07T11:53:07;7.60;99.90
12811;DHT22;6470;47.654;7.896;2024-03-07T11:55:38;8.30;99.90
12811;DHT22;6470;47.654;7.896;2024-03-07T11:58:20;8.80;99.90
12811;DHT22;6470;47.654;7.896;2024-03-07T12:00:50;9.20;99.90
12811;DHT22;6470;47.654;7.896;2024-03-07T12:03:20;8.50;99.90
12811;DHT22;6470;47.654;7.896;2024-03-07T12:05:50;9.00;99.90
12811;DHT22;6470;47.654;7.896;2024-03-07T12:10:48;8.50;99.90
12811;DHT22;6470;47.654;7.896;2024-03-07T12:13:19;6.60;99.90
12811;DHT22;6470;47.654;7.896;2024-03-07T12:15:45;8.80;99.90
12811;DHT22;6470;47.654;7.896;2024-03-07T12:18:12;9.00;99.90
12811;DHT22;6470;47.654;7.896;2024-03-07T12:20:43;8.80;99.90
12811;DHT22;6470;47.654;7.896;2024-03-07T12:23:15;8.30;99.90
12811;DHT22;6470;47.654;7.896;2024-03-07T12:28:12;8.30;99.90
12811;DHT22;6470;47.654;7.896;2024-03-07T12:30:52;8.80;99.90
12811;DHT22;6470;47.654;7.896;2024-03-07T12:33:19;9.00;99.90
12811;DHT22;6470;47.654;7.896;2024-03-07T12:35:47;8.10;99.90
12811;DHT22;6470;47.654;7.896;2024-03-07T12:38:15;8.40;99.90
12811;DHT22;6470;47.654;7.896;2024-03-07T12:40:42;8.90;99.90
12811;DHT22;6470;47.654;7.896;2024-03-07T12:43:19;7.90;99.90
12811;DHT22;6470;47.654;7.896;2024-03-07T12:45:50;8.40;99.90
12811;DHT22;6470;47.654;7.896;2024-03-07T12:48:20;8.30;99.90
12811;DHT22;6470;47.654;7.896;2024-03-07T12:53:22;8.00;99.90
12811;DHT22;6470;47.654;7.896;2024-03-07T12:55:48;8.10;99.90
12811;DHT22;6470;47.654;7.896;2024-03-07T12:58:14;8.30;99.90
12811;DHT22;6470;47.654;7.896;2024-03-07T13:00:40;8.70;99.90
12811;DHT22;6470;47.654;7.896;2024-03-07T13:03:09;8.00;99.90
12811;DHT22;6470;47.654;7.896;2024-03-07T13:05:38;9.10;99.90
12811;DHT22;6470;47.654;7.896;2024-03-07T13:10:43;9.60;99.90
12811;DHT22;6470;47.654;7.896;2024-03-07T13:13:10;9.60;99.90
12811;DHT22;6470;47.654;7.896;2024-03-07T13:15:37;9.70;99.90
12811;DHT22;6470;47.654;7.896;2024-03-07T13:18:04;9.00;99.90
12811;DHT22;6470;47.654;7.896;2024-03-07T13:20:30;9.70;99.90
12811;DHT22;6470;47.654;7.896;2024-03-07T13:22:56;9.10;99.90
12811;DHT22;6470;47.654;7.896;2024-03-07T13:25:24;5.90;99.90
12811;DHT22;6470;47.654;7.896;2024-03-07T13:28:04;9.20;99.90
12811;DHT22;6470;47.654;7.896;2024-03-07T13:30:33;9.20;99.90
12811;DHT22;6470;47.654;7.896;2024-03-07T13:33:02;9.10;99.90
12811;DHT22;6470;47.654;7.896;2024-03-07T13:35:29;9.00;99.90
12811;DHT22;6470;47.654;7.896;2024-03-07T13:37:55;8.80;99.90
12811;DHT22;6470;47.654;7.896;2024-03-07T13:40:25;9.20;99.90
12811;DHT22;6470;47.654;7.896;2024-03-07T13:42:56;9.20;99.90
12811;DHT22;6470;47.654;7.896;2024-03-07T13:45:29;9.00;99.90
12811;DHT22;6470;47.654;7.896;2024-03-07T13:47:57;8.30;99.90
12811;DHT22;6470;47.654;7.896;2024-03-07T13:50:26;8.80;99.90
12811;DHT22;6470;47.654;7.896;2024-03-07T13:52:54;8.80;99.90
12811;DHT22;6470;47.654;7.896;2024-03-07T14:01:55;6.40;99.90
12811;DHT22;6470;47.654;7.896;2024-03-07T14:07:41;9.30;99.90
12811;DHT22;6470;47.654;7.896;2024-03-07T14:11:48;9.00;99.90
12811;DHT22;6470;47.654;7.896;2024-03-07T14:14:13;8.80;99.90
12811;DHT22;6470;47.654;7.896;2024-03-07T14:25:47;9.00;99.90
12811;DHT22;6470;47.654;7.896;2024-03-07T14:28:38;9.10;99.90
12811;DHT22;6470;47.654;7.896;2024-03-07T14:39:04;8.80;99.90
12811;DHT22;6470;47.654;7.896;2024-03-07T14:42:01;9.40;99.90
12811;DHT22;6470;47.654;7.896;2024-03-07T14:44:28;8.70;99.90
12811;DHT22;6470;47.654;7.896;2024-03-07T14:47:02;8.50;99.90
12811;DHT22;6470;47.654;7.896;2024-03-07T14:49:31;8.80;99.90
12811;DHT22;6470;47.654;7.896;2024-03-07T14:51:58;8.50;99.90
12811;DHT22;6470;47.654;7.896;2024-03-07T14:54:24;8.70;99.90
12811;DHT22;6470;47.654;7.896;2024-03-07T14:56:52;8.90;99.90
12811;DHT22;6470;47.654;7.896;2024-03-07T14:59:18;8.40;99.90
12811;DHT22;6470;47.654;7.896;2024-03-07T15:01:44;8.00;99.90
12811;DHT22;6470;47.654;7.896;2024-03-07T15:04:10;8.70;99.90
12811;DHT22;6470;47.654;7.896;2024-03-07T15:06:38;9.00;99.90
12811;DHT22;6470;47.654;7.896;2024-03-07T15:09:05;9.00;99.90
12811;DHT22;6470;47.654;7.896;2024-03-07T15:11:38;8.70;99.90
12811;DHT22;6470;47.654;7.896;2024-03-07T15:14:06;7.00;99.90
12811;DHT22;6470;47.654;7.896;2024-03-07T15:16:34;8.30;99.90
12811;DHT22;6470;47.654;7.896;2024-03-07T15:19:03;8.50;99.90
12811;DHT22;6470;47.654;7.896;2024-03-07T15:21:29;8.30;99.90
12811;DHT22;6470;47.654;7.896;2024-03-07T15:23:56;8.70;99.90
12811;DHT22;6470;47.654;7.896;2024-03-07T15:28:53;8.10;99.90
12811;DHT22;6470;47.654;7.896;2024-03-07T15:31:23;8.60;99.90
12811;DHT22;6470;47.654;7.896;2024-03-07T15:33:49;7.60;99.90
12811;DHT22;6470;47.654;7.896;2024-03-07T15:36:17;8.00;99.90
12811;DHT22;6470;47.654;7.896;2024-03-07T15:38:43;8.30;99.90
12811;DHT22;6470;47.654;7.896;2024-03-07T15:41:09;8.40;99.90
12811;DHT22;6470;47.654;7.896;2024-03-07T15:43:38;8.40;99.90
12811;DHT22;6470;47.654;7.896;2024-03-07T15:46:04;8.50;99.90
12811;DHT22;6470;47.654;7.896;2024-03-07T15:48:30;8.40;99.90
12811;DHT22;6470;47.654;7.896;2024-03-07T15:50:56;7.70;99.90
12811;DHT22;6470;47.654;7.896;2024-03-07T15:53:25;8.10;99.90
12811;DHT22;6470;47.654;7.896;2024-03-07T15:58:17;7.10;99.90
12811;DHT22;6470;47.654;7.896;2024-03-07T16:00:43;7.10;99.90
12811;DHT22;6470;47.654;7.896;2024-03-07T16:03:11;7.30;99.90
12811;DHT22;6470;47.654;7.896;2024-03-07T16:05:39;7.70;99.90
12811;DHT22;6470;47.654;7.896;2024-03-07T16:08:08;7.70;99.90
12811;DHT22;6470;47.654;7.896;2024-03-07T16:10:36;4.00;99.90
12811;DHT22;6470;47.654;7.896;2024-03-07T16:13:04;4.00;99.90
12811;DHT22;6470;47.654;7.896;2024-03-07T16:15:32;7.80;99.90
12811;DHT22;6470;47.654;7.896;2024-03-07T16:17:59;7.40;99.90
12811;DHT22;6470;47.654;7.896;2024-03-07T16:20:29;7.60;99.90
12811;DHT22;6470;47.654;7.896;2024-03-07T16:25:22;4.90;99.90
12811;DHT22;6470;47.654;7.896;2024-03-07T16:27:49;4.00;99.90
12811;DHT22;6470;47.654;7.896;2024-03-07T16:30:17;6.90;99.90
12811;DHT22;6470;47.654;7.896;2024-03-07T16:32:45;7.50;99.90
12811;DHT22;6470;47.654;7.896;2024-03-07T16:35:14;6.90;99.90
12811;DHT22;6470;47.654;7.896;2024-03-07T16:37:42;7.90;99.90
12811;DHT22;6470;47.654;7.896;2024-03-07T16:40:10;7.40;99.90
12811;DHT22;6470;47.654;7.896;2024-03-07T16:42:37;7.30;99.90
12811;DHT22;6470;47.654;7.896;2024-03-07T16:45:09;7.30;99.90
12811;DHT22;6470;47.654;7.896;2024-03-07T16:47:46;7.40;99.90
12811;DHT22;6470;47.654;7.896;2024-03-07T16:50:14;7.60;99.90
12811;DHT22;6470;47.654;7.896;2024-03-07T16:52:40;7.50;99.90
12811;DHT22;6470;47.654;7.896;2024-03-07T16:55:08;4.10;99.90
12811;DHT22;6470;47.654;7.896;2024-03-07T16:57:40;7.30;99.90
12811;DHT22;6470;47.654;7.896;2024-03-07T17:00:10;6.40;99.90
12811;DHT22;6470;47.654;7.896;2024-03-07T17:02:39;6.20;99.90
12811;DHT22;6470;47.654;7.896;2024-03-07T17:05:05;6.60;99.90
12811;DHT22;6470;47.654;7.896;2024-03-07T17:07:49;6.80;99.90
12811;DHT22;6470;47.654;7.896;2024-03-07T17:10:16;4.30;99.90
12811;DHT22;6470;47.654;7.896;2024-03-07T17:12:45;7.00;99.90
12811;DHT22;6470;47.654;7.896;2024-03-07T17:15:22;7.90;99.90
12811;DHT22;6470;47.654;7.896;2024-03-07T17:17:49;4.00;99.90
12811;DHT22;6470;47.654;7.896;2024-03-07T17:20:20;7.30;99.90
12811;DHT22;6470;47.654;7.896;2024-03-07T17:22:47;7.30;99.90
12811;DHT22;6470;47.654;7.896;2024-03-07T17:27:42;3.60;99.90
12811;DHT22;6470;47.654;7.896;2024-03-07T17:30:13;6.20;99.90
12811;DHT22;6470;47.654;7.896;2024-03-07T17:32:39;6.80;99.90
12811;DHT22;6470;47.654;7.896;2024-03-07T17:35:06;3.30;99.90
12811;DHT22;6470;47.654;7.896;2024-03-07T17:37:42;3.80;99.90
12811;DHT22;6470;47.654;7.896;2024-03-07T17:40:11;7.30;99.90
12811;DHT22;6470;47.654;7.896;2024-03-07T17:42:50;3.50;99.90
12811;DHT22;6470;47.654;7.896;2024-03-07T17:45:20;6.70;99.90
12811;DHT22;6470;47.654;7.896;2024-03-07T17:47:48;7.20;99.90
12811;DHT22;6470;47.654;7.896;2024-03-07T17:50:32;6.80;99.90
12811;DHT22;6470;47.654;7.896;2024-03-07T17:53:00;6.80;99.90
12811;DHT22;6470;47.654;7.896;2024-03-07T17:55:27;6.60;99.90
12811;DHT22;6470;47.654;7.896;2024-03-07T17:57:55;6.40;99.90
12811;DHT22;6470;47.654;7.896;2024-03-07T18:00:23;6.60;99.90
12811;DHT22;6470;47.654;7.896;2024-03-07T18:03:02;6.60;99.90
12811;DHT22;6470;47.654;7.896;2024-03-07T18:05:30;6.90;99.90
12811;DHT22;6470;47.654;7.896;2024-03-07T18:07:56;7.00;99.90
12811;DHT22;6470;47.654;7.896;2024-03-07T18:10:26;7.30;99.90
12811;DHT22;6470;47.654;7.896;2024-03-07T18:12:56;6.30;99.90
12811;DHT22;6470;47.654;7.896;2024-03-07T18:15:23;6.20;99.90
12811;DHT22;6470;47.654;7.896;2024-03-07T18:17:54;3.40;99.90
12811;DHT22;6470;47.654;7.896;2024-03-07T18:20:25;6.70;99.90
12811;DHT22;6470;47.654;7.896;2024-03-07T18:22:55;6.80;99.90
12811;DHT22;6470;47.654;7.896;2024-03-07T18:25:21;7.00;99.90
12811;DHT22;6470;47.654;7.896;2024-03-07T18:27:51;7.30;99.90
12811;DHT22;6470;47.654;7.896;2024-03-07T18:30:17;2.90;99.90
12811;DHT22;6470;47.654;7.896;2024-03-07T18:32:46;6.60;99.90
12811;DHT22;6470;47.654;7.896;2024-03-07T18:35:12;6.70;99.90
12811;DHT22;6470;47.654;7.896;2024-03-07T18:37:37;6.50;99.90
12811;DHT22;6470;47.654;7.896;2024-03-07T18:40:04;6.30;99.90
12811;DHT22;6470;47.654;7.896;2024-03-07T18:42:38;6.80;99.90
12811;DHT22;6470;47.654;7.896;2024-03-07T18:45:04;6.00;99.90
12811;DHT22;6470;47.654;7.896;2024-03-07T18:47:39;5.90;99.90
12811;DHT22;6470;47.654;7.896;2024-03-07T18:50:14;6.20;99.90
12811;DHT22;6470;47.654;7.896;2024-03-07T18:52:40;5.70;99.90
12811;DHT22;6470;47.654;7.896;2024-03-07T18:55:09;5.50;99.90
12811;DHT22;6470;47.654;7.896;2024-03-07T18:57:56;6.60;99.90
12811;DHT22;6470;47.654;7.896;2024-03-07T19:00:26;6.00;99.90